createdAt,value
2022-10-31T00:01:42.018Z,21.30
2022-10-31T00:04:12.780Z,21.00
2022-10-31T00:06:41.216Z,19.90
2022-10-31T00:09:11.654Z,19.30
2022-10-31T00:11:40.284Z,20.30
2022-10-31T00:14:08.899Z,21.30
2022-10-31T00:16:37.285Z,20.70
2022-10-31T00:19:07.667Z,19.10
2022-10-31T00:21:36.548Z,20.20
2022-10-31T00:24:06.719Z,21.00
2022-10-31T00:26:35.314Z,19.60
2022-10-31T00:29:03.800Z,18.80
2022-10-31T00:31:32.608Z,19.80
2022-10-31T00:34:03.561Z,20.60
2022-10-31T00:36:31.938Z,19.50
2022-10-31T00:39:03.042Z,18.90
2022-10-31T00:41:31.514Z,19.00
2022-10-31T00:43:59.888Z,19.30
2022-10-31T00:46:28.814Z,19.50
2022-10-31T00:48:57.362Z,18.80
2022-10-31T00:51:26.080Z,18.70
2022-10-31T00:53:54.600Z,19.50
2022-10-31T00:56:23.391Z,20.10
2022-10-31T00:58:52.076Z,18.70
2022-10-31T01:01:22.195Z,18.50
2022-10-31T01:03:51.457Z,18.40
2022-10-31T01:06:20.006Z,19.50
2022-10-31T01:08:54.010Z,18.70
2022-10-31T01:11:23.772Z,18.10
2022-10-31T01:13:54.294Z,17.70
2022-10-31T01:16:27.199Z,19.30
2022-10-31T01:18:56.063Z,18.30
2022-10-31T01:21:26.736Z,18.00
2022-10-31T01:23:56.570Z,18.30
2022-10-31T01:26:27.044Z,19.60
2022-10-31T01:28:57.931Z,18.50
2022-10-31T01:31:28.158Z,17.70
2022-10-31T01:33:59.584Z,17.40
2022-10-31T01:36:30.448Z,19.50
2022-10-31T01:39:01.615Z,18.30
2022-10-31T01:41:32.207Z,17.20
2022-10-31T01:44:02.474Z,18.20
2022-10-31T01:46:37.381Z,19.10
2022-10-31T01:49:12.635Z,18.70
2022-10-31T01:51:48.401Z,18.20
2022-10-31T01:54:21.303Z,18.70
2022-10-31T01:56:52.850Z,20.10
2022-10-31T01:59:28.333Z,18.80
2022-10-31T02:01:57.191Z,18.60
2022-10-31T02:04:26.959Z,18.10
2022-10-31T02:07:00.196Z,19.10
2022-10-31T02:09:31.883Z,19.20
2022-10-31T02:12:01.408Z,17.10
2022-10-31T02:14:32.194Z,17.90
2022-10-31T02:17:00.623Z,19.50
2022-10-31T02:19:41.397Z,19.60
2022-10-31T02:22:16.457Z,18.00
2022-10-31T02:25:06.264Z,18.40
2022-10-31T02:28:16.050Z,20.20
2022-10-31T02:30:59.537Z,20.20
2022-10-31T02:33:36.850Z,17.50
2022-10-31T02:36:12.657Z,19.10
2022-10-31T02:38:52.099Z,20.10
2022-10-31T02:41:38.647Z,20.80
2022-10-31T02:44:22.199Z,19.90
2022-10-31T02:46:55.086Z,19.50
2022-10-31T02:49:29.145Z,21.40
2022-10-31T02:51:58.008Z,21.10
2022-10-31T02:54:29.208Z,19.80
2022-10-31T02:57:04.188Z,20.30
2022-10-31T02:59:36.941Z,21.50
2022-10-31T03:02:26.752Z,20.90
2022-10-31T03:05:22.879Z,20.50
2022-10-31T03:08:00.659Z,21.70
2022-10-31T03:10:36.833Z,23.30
2022-10-31T03:13:12.266Z,22.00
2022-10-31T03:15:46.081Z,20.70
2022-10-31T03:18:19.543Z,22.10
2022-10-31T03:20:55.224Z,23.20
2022-10-31T03:23:25.327Z,21.20
2022-10-31T03:25:55.154Z,21.00
2022-10-31T03:28:34.221Z,21.40
2022-10-31T03:31:07.251Z,21.50
2022-10-31T03:33:43.134Z,20.30
2022-10-31T03:36:15.228Z,20.40
2022-10-31T03:38:47.268Z,22.30
2022-10-31T03:41:24.112Z,20.80
2022-10-31T03:44:02.375Z,19.40
2022-10-31T03:46:31.104Z,20.60
2022-10-31T03:49:00.540Z,20.30
2022-10-31T03:51:39.161Z,21.20
2022-10-31T03:54:14.649Z,19.60
2022-10-31T03:56:52.160Z,19.20
2022-10-31T03:59:25.404Z,20.80
2022-10-31T04:02:01.795Z,20.20
2022-10-31T04:04:31.757Z,20.40
2022-10-31T04:07:02.367Z,19.00
2022-10-31T04:09:34.170Z,19.30
2022-10-31T04:12:08.907Z,20.20
2022-10-31T04:14:56.078Z,20.40
2022-10-31T04:17:31.207Z,19.10
2022-10-31T04:20:03.540Z,18.20
2022-10-31T04:22:33.160Z,19.90
2022-10-31T04:25:03.060Z,20.80
2022-10-31T04:27:31.434Z,18.40
2022-10-31T04:30:00.238Z,18.10
2022-10-31T04:32:28.711Z,18.60
2022-10-31T04:34:57.308Z,18.90
2022-10-31T04:37:26.050Z,17.90
2022-10-31T04:39:54.864Z,15.90
2022-10-31T04:42:55.809Z,16.30
2022-10-31T04:45:24.749Z,17.70
2022-10-31T04:47:53.836Z,15.60
2022-10-31T04:50:22.429Z,14.50
2022-10-31T04:52:51.037Z,15.90
2022-10-31T04:55:22.019Z,16.70
2022-10-31T04:58:09.096Z,15.40
2022-10-31T05:00:37.492Z,15.10
2022-10-31T05:03:07.024Z,16.30
2022-10-31T05:05:35.579Z,17.10
2022-10-31T05:08:06.503Z,15.70
2022-10-31T05:10:35.637Z,16.10
2022-10-31T05:13:06.185Z,16.60
2022-10-31T05:15:53.625Z,17.10
2022-10-31T05:19:01.192Z,15.10
2022-10-31T05:21:35.470Z,16.50
2022-10-31T05:24:08.645Z,16.80
2022-10-31T05:26:37.505Z,17.70
2022-10-31T05:29:06.393Z,17.10
2022-10-31T05:31:34.986Z,17.00
2022-10-31T05:34:04.386Z,17.20
2022-10-31T05:37:07.520Z,17.50
2022-10-31T05:39:35.873Z,16.50
2022-10-31T05:42:07.369Z,16.20
2022-10-31T05:44:36.372Z,16.30
2022-10-31T05:47:20.078Z,16.10
2022-10-31T05:49:57.571Z,16.10
2022-10-31T05:52:41.419Z,15.80
2022-10-31T05:55:33.746Z,18.10
2022-10-31T05:58:10.899Z,17.40
2022-10-31T06:00:39.668Z,17.10
2022-10-31T06:03:11.051Z,18.90
2022-10-31T06:05:56.038Z,17.40
2022-10-31T06:08:27.804Z,17.50
2022-10-31T06:10:57.802Z,40.20
2022-10-31T06:13:57.289Z,33.80
2022-10-31T06:16:29.306Z,23.00
2022-10-31T06:18:59.301Z,18.40
2022-10-31T06:21:28.052Z,17.60
2022-10-31T06:23:56.524Z,16.80
2022-10-31T06:26:44.465Z,17.90
2022-10-31T06:29:13.183Z,18.20
2022-10-31T06:32:00.407Z,27.00
2022-10-31T06:34:33.107Z,26.40
2022-10-31T06:37:01.877Z,24.80
2022-10-31T06:39:31.137Z,23.30
2022-10-31T06:41:59.890Z,19.70
2022-10-31T06:44:29.023Z,18.80
2022-10-31T06:46:57.491Z,18.80
2022-10-31T06:49:44.638Z,18.70
2022-10-31T06:52:16.168Z,18.20
2022-10-31T06:54:44.745Z,18.80
2022-10-31T06:57:13.745Z,18.30
2022-10-31T07:00:12.377Z,17.90
2022-10-31T07:02:54.699Z,18.30
2022-10-31T07:05:26.219Z,17.60
2022-10-31T07:07:56.040Z,19.00
2022-10-31T07:10:26.013Z,19.00
2022-10-31T07:13:02.940Z,18.80
2022-10-31T07:15:36.136Z,19.10
2022-10-31T07:18:06.527Z,20.10
2022-10-31T07:20:36.854Z,19.90
2022-10-31T07:23:06.117Z,19.30
2022-10-31T07:25:35.232Z,18.10
2022-10-31T07:28:18.471Z,18.60
2022-10-31T07:30:52.095Z,18.30
2022-10-31T07:33:22.687Z,18.20
2022-10-31T07:36:26.257Z,17.50
2022-10-31T07:38:56.064Z,17.20
2022-10-31T07:41:25.684Z,17.60
2022-10-31T07:43:58.829Z,18.50
2022-10-31T07:46:32.282Z,17.90
2022-10-31T07:49:25.995Z,17.70
2022-10-31T07:52:15.862Z,15.50
2022-10-31T07:55:16.813Z,17.20
2022-10-31T07:57:59.699Z,18.20
2022-10-31T08:00:30.905Z,18.70
2022-10-31T08:03:01.575Z,18.10
2022-10-31T08:05:49.336Z,18.70
2022-10-31T08:08:32.232Z,19.60
2022-10-31T08:11:04.039Z,20.20
2022-10-31T08:13:32.452Z,20.40
2022-10-31T08:16:04.888Z,19.50
2022-10-31T08:18:38.095Z,20.70
2022-10-31T08:21:07.316Z,21.20
2022-10-31T08:23:35.826Z,19.10
2022-10-31T08:26:06.442Z,19.40
2022-10-31T08:28:34.781Z,20.80
2022-10-31T08:31:05.136Z,20.80
2022-10-31T08:33:42.690Z,20.00
2022-10-31T08:36:31.599Z,20.40
2022-10-31T08:39:12.531Z,21.40
2022-10-31T08:41:40.957Z,20.30
2022-10-31T08:44:13.107Z,19.00
2022-10-31T08:46:42.130Z,20.00
2022-10-31T08:49:10.527Z,21.00
2022-10-31T08:51:39.021Z,18.80
2022-10-31T08:54:09.116Z,19.70
2022-10-31T08:56:37.484Z,20.20
2022-10-31T08:59:12.484Z,20.30
2022-10-31T09:02:16.764Z,19.90
2022-10-31T09:04:45.330Z,18.40
2022-10-31T09:07:21.454Z,18.70
2022-10-31T09:09:50.466Z,19.50
2022-10-31T09:12:22.271Z,31.80
2022-10-31T09:15:22.985Z,30.10
2022-10-31T09:18:09.467Z,20.80
2022-10-31T09:20:50.367Z,23.20
2022-10-31T09:23:20.747Z,21.80
2022-10-31T09:25:52.731Z,21.00
2022-10-31T09:28:45.241Z,19.60
2022-10-31T09:31:16.278Z,20.70
2022-10-31T09:33:54.955Z,22.90
2022-10-31T09:36:55.201Z,21.00
2022-10-31T09:39:24.954Z,21.00
2022-10-31T09:42:09.918Z,21.60
2022-10-31T09:44:52.971Z,22.40
2022-10-31T09:47:41.143Z,20.20
2022-10-31T09:50:37.161Z,20.80
2022-10-31T09:53:27.627Z,22.60
2022-10-31T09:55:57.342Z,22.40
2022-10-31T09:58:29.054Z,21.70
2022-10-31T10:01:01.388Z,20.70
2022-10-31T10:03:36.057Z,21.70
2022-10-31T10:06:16.100Z,20.80
2022-10-31T10:09:04.851Z,18.90
2022-10-31T10:12:16.206Z,19.50
2022-10-31T10:15:00.258Z,20.70
2022-10-31T10:17:45.873Z,19.40
2022-10-31T10:20:36.474Z,20.30
2022-10-31T10:23:32.989Z,20.30
2022-10-31T10:26:11.416Z,22.90
2022-10-31T10:28:43.933Z,21.10
2022-10-31T10:31:16.049Z,20.70
2022-10-31T10:34:09.146Z,21.10
2022-10-31T10:36:42.788Z,20.60
2022-10-31T10:39:16.883Z,19.90
2022-10-31T10:42:09.503Z,18.50
2022-10-31T10:44:59.519Z,19.80
2022-10-31T10:51:04.286Z,19.70
2022-10-31T10:54:00.405Z,19.90
2022-10-31T10:56:41.716Z,21.50
2022-10-31T10:59:14.793Z,20.30
2022-10-31T11:01:44.650Z,18.60
2022-10-31T11:04:29.637Z,20.60
2022-10-31T11:07:03.953Z,20.70
2022-10-31T11:09:33.417Z,21.40
2022-10-31T11:12:09.079Z,22.00
2022-10-31T11:14:46.365Z,23.20
2022-10-31T11:17:26.212Z,22.00
2022-10-31T11:20:24.442Z,23.10
2022-10-31T11:23:03.983Z,22.50
2022-10-31T11:25:32.675Z,22.00
2022-10-31T11:28:03.342Z,22.80
2022-10-31T11:30:43.059Z,23.60
2022-10-31T11:33:19.806Z,23.30
2022-10-31T11:35:52.149Z,22.00
2022-10-31T11:38:27.047Z,24.60
2022-10-31T11:40:59.873Z,23.20
2022-10-31T11:43:30.235Z,43.40
2022-10-31T11:45:58.898Z,29.30
2022-10-31T11:48:27.402Z,25.50
2022-10-31T11:50:58.071Z,23.30
2022-10-31T11:53:29.534Z,23.10
2022-10-31T11:56:11.498Z,20.40
2022-10-31T11:58:40.209Z,21.80
2022-10-31T12:01:26.283Z,22.00
2022-10-31T12:04:08.284Z,21.60
2022-10-31T12:06:38.547Z,21.80
2022-10-31T12:09:19.833Z,22.70
2022-10-31T12:12:02.540Z,23.40
2022-10-31T12:14:38.412Z,23.20
2022-10-31T12:17:16.502Z,21.80
2022-10-31T12:19:55.412Z,29.40
2022-10-31T12:22:33.028Z,25.80
2022-10-31T12:25:21.997Z,23.70
2022-10-31T12:28:16.527Z,24.00
2022-10-31T12:31:00.516Z,26.30
2022-10-31T12:33:42.665Z,26.60
2022-10-31T12:36:30.312Z,24.80
2022-10-31T12:39:24.188Z,26.50
2022-10-31T12:41:58.739Z,30.10
2022-10-31T12:44:49.483Z,28.50
2022-10-31T12:47:34.026Z,26.80
2022-10-31T12:50:18.498Z,30.40
2022-10-31T12:52:58.420Z,31.50
2022-10-31T12:55:41.971Z,30.40
2022-10-31T12:58:15.810Z,25.90
2022-10-31T13:00:50.697Z,24.50
2022-10-31T13:03:29.372Z,27.00
2022-10-31T13:06:04.155Z,26.40
2022-10-31T13:08:38.994Z,26.10
2022-10-31T13:11:11.513Z,25.80
2022-10-31T13:13:45.076Z,31.20
2022-10-31T13:16:17.876Z,28.60
2022-10-31T13:18:52.020Z,25.10
2022-10-31T13:21:25.821Z,26.40
2022-10-31T13:23:59.741Z,28.80
2022-10-31T13:26:41.499Z,36.00
2022-10-31T13:29:19.712Z,27.60
2022-10-31T13:31:48.289Z,26.30
2022-10-31T13:34:27.014Z,27.70
2022-10-31T13:37:06.621Z,31.20
2022-10-31T13:39:51.311Z,34.80
2022-10-31T13:42:25.799Z,33.80
2022-10-31T13:44:54.196Z,32.40
2022-10-31T13:47:25.495Z,29.40
2022-10-31T13:50:06.512Z,30.50
2022-10-31T13:52:44.746Z,28.30
2022-10-31T13:55:37.041Z,28.90
2022-10-31T13:58:20.148Z,28.10
2022-10-31T14:01:00.362Z,28.80
2022-10-31T14:03:57.535Z,31.20
2022-10-31T14:06:17.824Z,37.50
2022-10-31T14:08:52.830Z,32.90
2022-10-31T14:11:31.556Z,24.70
2022-10-31T14:14:03.162Z,27.50
2022-10-31T14:16:32.973Z,26.10
2022-10-31T14:19:05.244Z,29.80
2022-10-31T14:21:40.940Z,30.60
2022-10-31T14:24:17.150Z,28.40
2022-10-31T14:26:56.201Z,27.30
2022-10-31T14:29:27.487Z,27.80
2022-10-31T14:32:12.929Z,26.40
2022-10-31T14:34:43.378Z,28.00
2022-10-31T14:37:49.414Z,26.80
2022-10-31T14:40:34.003Z,26.70
2022-10-31T14:43:22.598Z,26.10
2022-10-31T14:45:58.266Z,24.70
2022-10-31T14:48:39.380Z,26.20
2022-10-31T14:51:16.919Z,26.90
2022-10-31T14:53:50.010Z,27.30
2022-10-31T14:56:32.805Z,26.50
2022-10-31T14:59:03.946Z,26.20
2022-10-31T15:01:37.095Z,26.40
2022-10-31T15:04:22.965Z,26.20
2022-10-31T15:07:12.015Z,25.20
2022-10-31T15:09:43.828Z,25.30
2022-10-31T15:12:27.374Z,29.90
2022-10-31T15:14:56.592Z,26.80
2022-10-31T15:17:30.100Z,20.50
2022-10-31T15:20:01.994Z,20.10
2022-10-31T15:22:32.564Z,19.90
2022-10-31T15:25:01.303Z,28.40
2022-10-31T15:27:33.062Z,24.80
2022-10-31T15:30:01.549Z,24.20
2022-10-31T15:32:30.864Z,21.70
2022-10-31T15:35:00.397Z,21.20
2022-10-31T15:37:29.149Z,19.30
2022-10-31T15:40:13.092Z,20.10
2022-10-31T15:42:49.964Z,25.60
2022-10-31T15:45:36.843Z,22.20
2022-10-31T15:48:21.562Z,23.30
2022-10-31T15:53:54.837Z,25.30
2022-10-31T15:56:26.178Z,27.00
2022-10-31T15:58:57.889Z,22.30
2022-10-31T16:01:31.373Z,23.10
2022-10-31T16:04:17.300Z,25.50
2022-10-31T16:06:58.091Z,24.10
2022-10-31T16:09:39.459Z,21.40
2022-10-31T16:12:32.310Z,23.60
2022-10-31T16:16:33.521Z,22.40
2022-10-31T16:19:26.709Z,19.90
2022-10-31T16:22:06.502Z,20.30
2022-10-31T16:24:50.436Z,18.90
2022-10-31T16:27:39.128Z,16.30
2022-10-31T16:30:38.659Z,17.00
2022-10-31T16:33:33.663Z,18.20
2022-10-31T16:36:41.692Z,20.20
2022-10-31T16:39:32.089Z,19.70
2022-10-31T16:42:03.556Z,18.90
2022-10-31T16:44:32.265Z,19.10
2022-10-31T16:47:18.326Z,18.10
2022-10-31T16:49:50.070Z,18.80
2022-10-31T16:52:21.378Z,38.70
2022-10-31T16:54:50.545Z,23.10
2022-10-31T16:57:26.644Z,20.40
2022-10-31T16:59:58.837Z,22.20
2022-10-31T17:02:28.088Z,22.90
2022-10-31T17:04:57.980Z,16.30
2022-10-31T17:07:26.411Z,15.90
2022-10-31T17:09:55.124Z,14.50
2022-10-31T17:12:27.477Z,14.20
2022-10-31T17:14:56.420Z,12.50
2022-10-31T17:17:24.910Z,12.80
2022-10-31T17:19:53.806Z,12.60
2022-10-31T17:22:22.170Z,12.70
2022-10-31T17:24:51.483Z,11.00
2022-10-31T17:27:20.186Z,11.50
2022-10-31T17:29:48.759Z,14.60
2022-10-31T17:32:18.780Z,13.50
2022-10-31T17:34:47.836Z,13.50
2022-10-31T17:37:16.627Z,16.10
2022-10-31T17:39:52.570Z,15.60
2022-10-31T17:42:22.227Z,16.30
2022-10-31T17:44:50.590Z,16.40
2022-10-31T17:47:20.428Z,14.70
2022-10-31T17:49:52.630Z,13.60
2022-10-31T17:52:23.724Z,14.50
2022-10-31T17:54:52.257Z,14.70
2022-10-31T17:57:20.841Z,15.60
2022-10-31T17:59:50.266Z,16.10
2022-10-31T18:02:19.090Z,16.50
2022-10-31T18:04:48.394Z,18.50
2022-10-31T18:07:18.831Z,20.10
2022-10-31T18:09:47.830Z,17.50
2022-10-31T18:12:18.276Z,17.50
2022-10-31T18:14:48.611Z,17.70
2022-10-31T18:17:36.963Z,17.60
2022-10-31T18:20:10.105Z,18.30
2022-10-31T18:22:39.668Z,16.40
2022-10-31T18:25:09.497Z,17.90
2022-10-31T18:27:38.156Z,16.60
2022-10-31T18:30:10.299Z,16.30
2022-10-31T18:32:40.297Z,16.70
2022-10-31T18:35:11.450Z,17.30
2022-10-31T18:38:03.470Z,28.50
2022-10-31T18:40:32.321Z,37.00
2022-10-31T18:43:00.790Z,24.90
2022-10-31T18:45:41.646Z,23.30
2022-10-31T18:48:15.806Z,21.70
2022-10-31T18:50:44.445Z,19.50
2022-10-31T18:53:12.993Z,27.90
2022-10-31T18:55:45.437Z,28.10
2022-10-31T18:58:18.819Z,26.20
2022-10-31T19:00:47.527Z,23.00
2022-10-31T19:03:24.834Z,21.70
2022-10-31T19:05:56.051Z,20.50
2022-10-31T19:08:25.532Z,20.00
2022-10-31T19:10:55.072Z,18.90
2022-10-31T19:13:23.809Z,23.60
2022-10-31T19:15:52.579Z,28.50
2022-10-31T19:18:23.761Z,20.80
2022-10-31T19:20:52.490Z,20.90
2022-10-31T19:23:21.107Z,19.00
2022-10-31T19:25:49.770Z,19.10
2022-10-31T19:31:01.412Z,17.70
2022-10-31T19:33:35.875Z,17.40
2022-10-31T19:36:08.770Z,19.60
2022-10-31T19:38:39.661Z,18.50
2022-10-31T19:41:10.273Z,18.10
2022-10-31T19:43:39.170Z,18.70
2022-10-31T19:46:17.562Z,19.20
2022-10-31T19:48:56.617Z,18.90
2022-10-31T19:51:25.028Z,19.90
2022-10-31T19:53:54.742Z,21.20
2022-10-31T19:56:25.022Z,22.60
2022-10-31T19:58:53.800Z,22.10
2022-10-31T20:01:23.818Z,23.30
2022-10-31T20:03:53.829Z,23.40
2022-10-31T20:06:24.803Z,28.00
2022-10-31T20:08:55.129Z,55.80
2022-10-31T20:11:24.340Z,40.20
2022-10-31T20:13:55.493Z,35.40
2022-10-31T20:16:26.696Z,27.40
2022-10-31T20:18:55.820Z,25.20
2022-10-31T20:21:25.894Z,26.90
2022-10-31T20:23:57.168Z,25.80
2022-10-31T20:26:26.594Z,27.40
2022-10-31T20:28:56.652Z,25.20
2022-10-31T20:31:27.223Z,23.80
2022-10-31T20:33:56.092Z,24.90
2022-10-31T20:36:32.039Z,25.30
2022-10-31T20:39:02.878Z,26.40
2022-10-31T20:41:31.650Z,26.60
2022-10-31T20:44:00.031Z,27.40
2022-10-31T20:46:30.056Z,29.10
2022-10-31T20:48:58.517Z,30.00
2022-10-31T20:51:30.193Z,26.10
2022-10-31T20:54:00.553Z,24.50
2022-10-31T20:56:29.366Z,23.70
2022-10-31T20:58:58.144Z,22.10
2022-10-31T21:01:29.310Z,21.10
2022-10-31T21:03:58.655Z,21.90
2022-10-31T21:06:27.871Z,22.00
2022-10-31T21:08:57.531Z,20.30
2022-10-31T21:11:27.941Z,20.00
2022-10-31T21:13:57.999Z,20.40
2022-10-31T21:16:29.030Z,21.60
2022-10-31T21:18:59.180Z,24.40
2022-10-31T21:21:32.428Z,23.30
2022-10-31T21:24:03.945Z,22.50
2022-10-31T21:26:38.114Z,20.80
2022-10-31T21:29:13.399Z,20.40
2022-10-31T21:31:42.339Z,20.00
2022-10-31T21:34:13.227Z,18.50
2022-10-31T21:36:41.600Z,18.20
2022-10-31T21:39:12.881Z,19.10
2022-10-31T21:41:41.364Z,19.00
2022-10-31T21:44:09.719Z,18.20
2022-10-31T21:46:39.358Z,16.50
2022-10-31T21:49:10.024Z,17.90
2022-10-31T21:51:38.422Z,18.80
2022-10-31T21:54:25.244Z,17.50
2022-10-31T21:56:54.298Z,17.60
2022-10-31T21:59:22.803Z,17.80
2022-10-31T22:01:52.729Z,17.70
2022-10-31T22:04:21.462Z,17.70
2022-10-31T22:06:50.257Z,18.60
2022-10-31T22:09:19.586Z,17.50
2022-10-31T22:11:48.317Z,16.50
2022-10-31T22:14:16.974Z,16.70
2022-10-31T22:16:45.439Z,16.30
2022-10-31T22:19:14.895Z,14.80
2022-10-31T22:21:45.722Z,14.90
2022-10-31T22:24:15.091Z,14.40
2022-10-31T22:26:43.507Z,14.70
2022-10-31T22:29:13.916Z,15.10
2022-10-31T22:31:44.251Z,14.80
2022-10-31T22:34:14.535Z,15.50
2022-10-31T22:36:43.516Z,15.60
2022-10-31T22:39:13.532Z,16.40
2022-10-31T22:41:42.111Z,16.60
2022-10-31T22:44:10.598Z,16.40
2022-10-31T22:46:40.980Z,14.80
2022-10-31T22:49:13.990Z,15.60
2022-10-31T22:51:43.625Z,15.00
2022-10-31T22:54:14.764Z,14.80
2022-10-31T22:56:43.418Z,14.90
2022-10-31T22:59:13.521Z,15.20
2022-10-31T23:01:44.150Z,15.10
2022-10-31T23:04:12.754Z,17.00
2022-10-31T23:06:46.666Z,16.30
2022-10-31T23:09:19.181Z,12.40
2022-10-31T23:11:50.514Z,11.80
2022-10-31T23:14:20.431Z,11.00
2022-10-31T23:16:51.033Z,10.60
2022-10-31T23:19:22.339Z,10.50
2022-10-31T23:21:56.071Z,9.40
2022-10-31T23:24:27.829Z,10.30
2022-10-31T23:27:12.348Z,10.40
2022-10-31T23:29:46.484Z,11.50
2022-10-31T23:32:19.199Z,11.80
2022-10-31T23:34:52.651Z,10.70
2022-10-31T23:37:23.205Z,11.40
2022-10-31T23:39:54.394Z,10.70
2022-10-31T23:42:24.151Z,11.60
2022-10-31T23:44:52.883Z,11.40
2022-10-31T23:47:22.339Z,11.00
2022-10-31T23:49:51.122Z,11.40
2022-10-31T23:52:19.777Z,11.60
2022-10-31T23:54:51.144Z,12.80
2022-10-31T23:57:20.288Z,12.90
2022-10-31T23:59:48.748Z,12.70
